Terminal Aerodrome Forecast
Issued by NWS

Home | Current Version | Previous Version | Text Only | Print | Product List | Glossary On
Versions: 1 2 3 4 5 6 7 8 9 10 11 12 13 14 15 16 17 18 19 20 21 22
000
FTUS45 KVEF 010529
TAFHND
TAF
KHND 010529Z 0106/0206 18008KT P6SM SCT120 SCT150 BKN230
     FM011300 15008KT P6SM VCTS SCT090CB BKN150
      TEMPO 0114/0118 VRB10G20KT 6SM -TSRA SCT070CB BKN100
     FM011900 17010KT P6SM VCTS SCT090CB BKN150
      TEMPO 0119/0123 VRB12G25KT 6SM -TSRA SCT070CB BKN100
     FM020200 14008KT P6SM FEW090 SCT110 BKN150=

USA.gov is the U.S. government's official web portal to all federal, state and local government web resources and services.